Time;durP1;ratioP1;P1;durP2;ratioP2;P2;SDS_P1;SDS_P2;PMS_P1;PMS_P2;Temp;Humidity;BMP_temperature;BMP_pressure;BME280_temperature;BME280_humidity;BME280_pressure;Samples;Min_cycle;Max_cycle;Signal;HPM_P1;HPM_P2
2021/04/03 00:01:18;;;;;;;17.73;6.43;;;;;;;6.58;64.78;101833.63;5060761;28;20184;-67
2021/04/03 00:03:43;;;;;;;22.80;6.70;;;;;;;6.13;65.94;101833.34;5060736;28;20560;-67
2021/04/03 00:06:08;;;;;;;24.93;7.90;;;;;;;6.65;64.81;101824.41;5060977;28;20161;-66
2021/04/03 00:08:34;;;;;;;27.83;7.67;;;;;;;6.14;66.03;101835.13;5060763;28;20459;-66
2021/04/03 00:11:03;;;;;;;20.10;5.90;;;;;;;6.19;66.07;101836.22;5059183;28;20185;-67
2021/04/03 00:13:30;;;;;;;20.90;7.10;;;;;;;6.59;65.26;101838.00;5060897;28;20169;-67
2021/04/03 00:15:57;;;;;;;20.90;6.80;;;;;;;6.18;66.10;101842.19;5060395;28;20782;-68
2021/04/03 00:18:22;;;;;;;25.33;6.40;;;;;;;6.00;66.64;101842.25;5060525;28;20442;-67
2021/04/03 00:20:48;;;;;;;26.43;6.90;;;;;;;6.04;67.22;101847.63;5061015;28;20422;-67
2021/04/03 00:23:15;;;;;;;19.43;6.50;;;;;;;6.25;66.22;101844.25;5060253;28;20543;-67
2021/04/03 00:25:41;;;;;;;30.43;8.93;;;;;;;6.27;66.21;101836.56;5059998;28;20455;-67
2021/04/03 00:28:06;;;;;;;29.43;8.57;;;;;;;5.95;67.50;101839.41;5060705;28;20764;-67
2021/04/03 00:30:32;;;;;;;18.73;7.60;;;;;;;6.18;66.69;101842.19;5060028;28;20169;-67
2021/04/03 00:32:59;;;;;;;26.40;8.50;;;;;;;5.99;67.06;101836.16;5060173;28;20170;-67
2021/04/03 00:35:30;;;;;;;25.07;10.20;;;;;;;6.23;66.32;101836.41;5060513;28;20172;-67
2021/04/03 00:37:56;;;;;;;17.63;6.87;;;;;;;6.19;66.58;101849.16;5060014;28;20412;-67
2021/04/03 00:40:22;;;;;;;27.97;7.30;;;;;;;6.07;66.60;101844.31;5059627;28;20405;-68
2021/04/03 00:42:48;;;;;;;21.70;8.00;;;;;;;6.26;66.12;101848.59;5060254;28;20455;-67
2021/04/03 00:45:15;;;;;;;20.83;6.87;;;;;;;6.21;66.36;101852.69;5059966;28;20424;-67
2021/04/03 00:47:41;;;;;;;29.83;7.40;;;;;;;5.84;67.76;101862.19;5059936;28;20205;-67
2021/04/03 00:50:07;;;;;;;22.60;7.00;;;;;;;6.16;66.80;101856.78;5060277;28;20412;-68
2021/04/03 00:52:34;;;;;;;22.43;7.83;;;;;;;5.77;67.73;101861.84;5059732;28;20412;-67
2021/04/03 00:54:59;;;;;;;30.23;8.47;;;;;;;5.77;67.80;101867.91;5059220;28;20419;-67
2021/04/03 00:57:24;;;;;;;24.50;7.53;;;;;;;5.94;67.28;101868.72;5059837;28;20420;-67
2021/04/03 00:59:50;;;;;;;25.23;8.73;;;;;;;6.12;67.09;101868.69;5059619;28;20433;-67
2021/04/03 01:02:15;;;;;;;24.77;8.43;;;;;;;5.74;68.28;101868.66;5059608;28;20173;-67
2021/04/03 01:04:40;;;;;;;26.80;7.97;;;;;;;5.86;67.34;101865.75;5060101;28;20166;-67
2021/04/03 01:07:06;;;;;;;26.07;8.97;;;;;;;5.73;68.55;101868.56;5059477;28;20197;-67
2021/04/03 01:09:35;;;;;;;21.47;7.40;;;;;;;6.01;67.24;101862.16;5059458;28;20166;-67
2021/04/03 01:12:28;;;;;;;22.87;6.30;;;;;;;5.90;67.50;101865.09;5058705;28;20193;-68
2021/04/03 01:15:15;;;;;;;24.03;7.37;;;;;;;5.93;67.19;101858.25;5058847;28;20502;-67
2021/04/03 01:17:53;;;;;;;22.47;7.73;;;;;;;6.08;66.97;101874.56;5059477;28;20420;-67
2021/04/03 01:20:40;;;;;;;21.90;7.80;;;;;;;5.87;67.13;101870.13;5058583;28;20698;-67
2021/04/03 01:23:43;;;;;;;21.97;7.60;;;;;;;5.86;67.42;101876.09;5058939;28;20821;-68
2021/04/03 01:26:34;;;;;;;25.97;8.13;;;;;;;6.00;67.55;101876.78;5058278;28;20517;-67
2021/04/03 01:29:09;;;;;;;17.53;6.70;;;;;;;5.93;67.47;101878.97;5058817;28;20466;-67
2021/04/03 01:31:38;;;;;;;20.40;7.40;;;;;;;5.84;66.85;101874.25;5059055;28;20786;-67
2021/04/03 01:34:07;;;;;;;26.83;7.00;;;;;;;5.69;68.29;101887.34;5058738;28;20515;-66
2021/04/03 01:36:33;;;;;;;23.03;7.67;;;;;;;5.53;69.16;101881.44;5059054;28;20686;-67
2021/04/03 01:39:02;;;;;;;35.90;9.60;;;;;;;5.28;69.11;101889.69;5057802;28;20438;-67
2021/04/03 01:41:30;;;;;;;30.63;8.63;;;;;;;5.53;69.02;101891.81;5059183;28;20504;-68
2021/04/03 01:43:57;;;;;;;21.73;7.07;;;;;;;5.52;68.73;101887.44;5057893;28;20412;-68
2021/04/03 01:46:23;;;;;;;18.97;7.13;;;;;;;5.76;67.71;101875.59;5059547;28;20455;-66
2021/04/03 01:48:50;;;;;;;18.20;6.50;;;;;;;5.97;66.70;101883.50;5062011;28;20444;-67
2021/04/03 01:51:16;;;;;;;22.10;7.90;;;;;;;5.98;66.42;101891.38;5064065;28;20477;-68
2021/04/03 01:53:43;;;;;;;26.83;7.40;;;;;;;5.95;66.50;101891.16;5060650;28;20423;-68
2021/04/03 01:56:10;;;;;;;20.20;6.67;;;;;;;5.81;67.12;101902.59;5063583;28;20166;-67
2021/04/03 01:58:35;;;;;;;26.70;7.80;;;;;;;5.74;67.24;101902.28;5062475;28;20423;-67
2021/04/03 02:01:01;;;;;;;26.90;7.30;;;;;;;5.59;67.81;101896.38;5060465;28;20416;-67
2021/04/03 02:03:26;;;;;;;17.97;6.70;;;;;;;5.64;67.84;101905.25;5059713;28;20180;-67
2021/04/03 02:05:52;;;;;;;22.70;7.70;;;;;;;5.31;69.53;101913.09;5059146;28;20169;-67
2021/04/03 02:08:19;;;;;;;22.97;9.10;;;;;;;5.40;68.54;101905.81;5060271;28;20294;-67
2021/04/03 02:10:45;;;;;;;21.30;7.70;;;;;;;5.42;68.97;101908.47;5045086;28;20444;-68
2021/04/03 02:13:10;;;;;;;20.00;7.13;;;;;;;5.70;67.32;101897.78;5065165;28;20844;-68
2021/04/03 02:15:36;;;;;;;22.27;7.37;;;;;;;5.53;67.43;101901.25;5060484;28;20412;-68
2021/04/03 02:18:04;;;;;;;28.10;8.50;;;;;;;5.20;68.91;101906.53;5059405;28;20162;-68
2021/04/03 02:20:29;;;;;;;20.13;8.17;;;;;;;5.25;68.79;101907.66;5058767;28;20516;-67
2021/04/03 02:22:55;;;;;;;32.93;9.57;;;;;;;5.01;70.04;101908.16;5057573;28;20459;-68
2021/04/03 02:25:20;;;;;;;20.00;7.60;;;;;;;5.21;69.15;101913.47;5057770;28;20267;-67
2021/04/03 02:27:46;;;;;;;20.67;7.03;;;;;;;5.10;69.15;101912.94;5058175;28;20205;-67
2021/04/03 02:30:17;;;;;;;21.83;8.00;;;;;;;5.30;68.01;101903.56;5058179;28;20170;-68
2021/04/03 02:32:45;;;;;;;20.00;7.93;;;;;;;5.10;67.87;101910.34;5058226;28;20460;-68
2021/04/03 02:35:11;;;;;;;20.83;7.67;;;;;;;5.07;69.02;101907.59;5057771;28;20405;-68
2021/04/03 02:37:37;;;;;;;20.30;7.30;;;;;;;4.79;69.80;101907.84;5058706;28;20392;-68
2021/04/03 02:40:07;;;;;;;22.53;7.30;;;;;;;4.72;70.65;101911.81;5057709;28;20173;-67
2021/04/03 02:42:34;;;;;;;29.83;8.10;;;;;;;5.20;68.96;101907.41;5057037;28;20196;-67
2021/04/03 02:45:03;;;;;;;26.17;7.10;;;;;;;4.96;69.50;101909.63;5058430;28;20400;-67
2021/04/03 02:47:40;;;;;;;22.77;7.33;;;;;;;4.58;70.65;101913.69;5090039;28;20517;-68
2021/04/03 02:50:15;;;;;;;26.77;8.27;;;;;;;4.77;70.05;101925.00;5090860;28;20403;-66
2021/04/03 02:52:41;;;;;;;25.27;7.90;;;;;;;4.93;69.11;101919.81;5057773;28;20729;-67
2021/04/03 02:55:07;;;;;;;18.97;8.03;;;;;;;4.59;70.49;101930.06;5057596;28;20502;-67
2021/04/03 02:57:33;;;;;;;21.87;7.10;;;;;;;4.83;69.68;101928.78;5058143;28;20446;-67
2021/04/03 03:00:02;;;;;;;21.77;9.13;;;;;;;4.92;68.89;101923.19;5065015;28;20834;-67
2021/04/03 03:02:27;;;;;;;24.80;9.20;;;;;;;4.68;70.33;101926.28;5064428;28;20682;-67
2021/04/03 03:04:54;;;;;;;21.13;7.60;;;;;;;4.88;68.68;101929.91;5057619;28;20399;-67
2021/04/03 03:07:22;;;;;;;24.73;7.80;;;;;;;4.63;69.77;101938.06;5057011;28;20221;-66
2021/04/03 03:09:49;;;;;;;23.30;9.10;;;;;;;4.65;70.52;101926.09;5057152;28;20424;-68
2021/04/03 03:12:16;;;;;;;17.67;7.90;;;;;;;4.77;69.22;101930.16;5056680;28;20455;-67
2021/04/03 03:14:43;;;;;;;20.20;7.40;;;;;;;5.05;69.29;101928.19;5057825;28;20818;-67
2021/04/03 03:17:12;;;;;;;15.90;7.00;;;;;;;4.92;68.84;101919.72;5057830;28;20427;-67
2021/04/03 03:19:38;;;;;;;18.50;6.90;;;;;;;4.68;68.69;101931.44;5057460;28;20443;-66
2021/04/03 03:22:07;;;;;;;22.30;8.07;;;;;;;4.48;70.06;101937.22;5056747;28;20459;-67
2021/04/03 03:24:33;;;;;;;19.53;7.00;;;;;;;4.52;69.70;101934.03;5056968;28;20535;-66
2021/04/03 03:26:59;;;;;;;23.13;7.47;;;;;;;4.83;68.31;101940.78;5057356;28;20539;-66
2021/04/03 03:29:26;;;;;;;18.77;7.73;;;;;;;4.57;69.48;101936.84;5057558;28;20473;-67
2021/04/03 03:31:51;;;;;;;17.87;7.60;;;;;;;4.44;69.87;101940.44;5057029;28;20507;-68
2021/04/03 03:34:17;;;;;;;16.30;7.50;;;;;;;4.42;69.70;101942.06;5056886;28;20448;-67
2021/04/03 03:36:42;;;;;;;24.83;8.27;;;;;;;4.39;69.08;101948.84;5057849;28;20531;-67
2021/04/03 03:39:09;;;;;;;22.13;7.63;;;;;;;4.70;68.36;101940.16;5058058;28;20158;-67
2021/04/03 03:41:35;;;;;;;28.43;7.60;;;;;;;4.66;68.64;101945.97;5057428;28;20174;-67
2021/04/03 03:44:05;;;;;;;20.40;7.50;;;;;;;4.60;68.90;101945.66;5058515;28;20467;-67
2021/04/03 03:46:31;;;;;;;14.27;7.50;;;;;;;4.51;68.95;101947.75;5067131;28;20543;-67
2021/04/03 03:48:57;;;;;;;16.83;7.03;;;;;;;4.42;69.62;101949.81;5061150;28;20415;-68
2021/04/03 03:51:22;;;;;;;22.03;7.67;;;;;;;4.49;69.63;101959.66;5061006;28;20778;-68
2021/04/03 03:53:47;;;;;;;12.27;6.83;;;;;;;4.07;70.73;101965.13;5061149;28;20169;-67
2021/04/03 03:56:16;;;;;;;13.77;6.57;;;;;;;4.42;68.81;101962.72;5060879;28;20263;-67
2021/04/03 03:58:42;;;;;;;13.93;6.97;;;;;;;4.49;68.75;101967.41;5060179;28;20165;-68
2021/04/03 04:01:08;;;;;;;17.70;7.10;;;;;;;4.20;69.97;101972.75;5061256;28;20420;-67
2021/04/03 04:03:33;;;;;;;18.17;7.03;;;;;;;4.20;70.23;101977.91;5059887;28;20424;-68
2021/04/03 04:05:58;;;;;;;17.23;7.80;;;;;;;4.20;70.48;101977.03;5061118;28;20252;-67
2021/04/03 04:08:24;;;;;;;19.87;7.97;;;;;;;4.23;69.95;101979.78;5061322;28;20463;-68
2021/04/03 04:10:49;;;;;;;20.03;7.47;;;;;;;4.21;69.57;101989.16;5060941;28;20244;-67
2021/04/03 04:13:17;;;;;;;17.20;7.10;;;;;;;4.43;69.00;101986.06;5060514;28;20264;-67
2021/04/03 04:15:43;;;;;;;20.50;7.87;;;;;;;4.16;70.42;101988.00;5061300;28;20220;-67
2021/04/03 04:18:08;;;;;;;15.10;6.70;;;;;;;4.34;69.24;101990.69;5060457;28;20416;-68
2021/04/03 04:20:33;;;;;;;22.77;7.37;;;;;;;4.27;70.34;101991.19;5060458;28;20208;-68
2021/04/03 04:22:59;;;;;;;22.60;7.30;;;;;;;4.37;68.84;101983.13;5060876;28;20249;-67
2021/04/03 04:25:25;;;;;;;20.47;7.80;;;;;;;4.49;68.34;101986.41;5060032;28;20269;-67
2021/04/03 04:27:51;;;;;;;14.20;7.20;;;;;;;4.32;69.27;101997.50;5060463;28;21277;-67
2021/04/03 04:30:16;;;;;;;28.17;12.23;;;;;;;4.17;69.77;102002.69;5060836;28;20184;-67
2021/04/03 04:32:43;;;;;;;19.50;7.10;;;;;;;4.17;69.44;101997.53;5059965;28;20586;-67
2021/04/03 04:35:10;;;;;;;20.03;7.73;;;;;;;4.34;69.49;102001.94;5060252;28;20201;-67
2021/04/03 04:37:37;;;;;;;16.43;7.60;;;;;;;4.31;68.68;101990.53;5060644;28;20502;-68
2021/04/03 04:40:07;;;;;;;16.03;7.27;;;;;;;4.42;68.20;101997.19;5060317;28;20420;-67
2021/04/03 04:42:33;;;;;;;15.40;9.10;;;;;;;4.33;68.33;101995.00;5060054;28;20427;-67
2021/04/03 04:44:58;;;;;;;17.47;8.17;;;;;;;4.07;69.47;101992.63;5060436;28;20831;-67
2021/04/03 04:47:24;;;;;;;19.90;7.97;;;;;;;4.29;68.67;101994.72;5059759;28;20250;-67
2021/04/03 04:49:52;;;;;;;19.70;8.13;;;;;;;4.32;68.77;102000.06;5059893;28;20185;-67
2021/04/03 04:52:18;;;;;;;20.43;6.93;;;;;;;4.05;69.47;102003.75;5060007;28;20256;-67
2021/04/03 04:54:43;;;;;;;14.43;7.20;;;;;;;4.46;68.01;102006.00;5059964;28;20585;-67
2021/04/03 04:57:09;;;;;;;20.17;8.70;;;;;;;4.36;67.77;102012.34;5059360;28;20181;-67
2021/04/03 04:59:34;;;;;;;14.73;7.33;;;;;;;4.62;66.93;102012.88;5060580;28;20168;-67
2021/04/03 05:01:59;;;;;;;18.23;7.60;;;;;;;4.48;67.71;102010.44;5059607;28;20515;-67
2021/04/03 05:04:25;;;;;;;18.60;7.93;;;;;;;4.54;67.77;102015.91;5059623;28;20228;-68
2021/04/03 05:06:50;;;;;;;15.63;8.10;;;;;;;4.39;67.78;102020.25;5059686;28;20247;-67
2021/04/03 05:09:15;;;;;;;15.33;8.03;;;;;;;4.84;66.29;102020.09;5059878;28;20178;-67
2021/04/03 05:11:40;;;;;;;15.83;7.27;;;;;;;4.81;66.08;102025.97;5059465;28;20212;-67
2021/04/03 05:14:06;;;;;;;13.33;7.23;;;;;;;4.69;66.02;102025.31;5060056;28;20201;-67
2021/04/03 05:16:31;;;;;;;20.37;8.60;;;;;;;4.51;67.83;102036.41;5059361;28;20188;-67
2021/04/03 05:18:56;;;;;;;10.90;7.13;;;;;;;4.67;67.80;102045.91;5059291;28;20484;-67
2021/04/03 05:21:22;;;;;;;15.67;8.87;;;;;;;4.84;66.25;102049.41;5059665;28;20170;-68
2021/04/03 05:23:47;;;;;;;17.10;7.47;;;;;;;4.94;65.84;102050.81;5059217;28;20173;-67
2021/04/03 05:26:12;;;;;;;17.17;8.10;;;;;;;4.39;67.20;102057.28;5058532;28;20287;-67
2021/04/03 05:28:38;;;;;;;24.13;8.00;;;;;;;4.45;67.36;102066.19;5059748;28;20501;-67
2021/04/03 05:31:03;;;;;;;18.20;7.73;;;;;;;4.41;67.31;102067.72;5059105;28;20502;-67
2021/04/03 05:33:28;;;;;;;15.10;7.53;;;;;;;4.90;66.28;102066.94;5059128;28;20455;-68
2021/04/03 05:35:54;;;;;;;17.07;8.33;;;;;;;4.60;67.43;102071.31;5059584;28;20201;-67
2021/04/03 05:38:19;;;;;;;15.27;8.00;;;;;;;4.54;67.58;102071.84;5059146;28;20439;-66
2021/04/03 05:40:44;;;;;;;16.40;6.90;;;;;;;4.61;66.57;102073.97;5064207;28;20446;-67
2021/04/03 05:43:10;;;;;;;16.57;8.00;;;;;;;4.80;65.84;102082.75;5061428;28;20188;-67
2021/04/03 05:45:37;;;;;;;21.93;7.90;;;;;;;4.99;66.03;102072.63;5057715;28;20173;-67
2021/04/03 05:48:03;;;;;;;15.77;6.70;;;;;;;5.02;65.30;102082.19;5058121;28;20288;-67
2021/04/03 05:50:28;;;;;;;14.50;7.50;;;;;;;5.63;63.46;102074.22;5059122;28;20451;-66
2021/04/03 05:52:54;;;;;;;15.73;7.17;;;;;;;7.37;58.55;102072.97;5058703;28;20173;-66
2021/04/03 05:55:19;;;;;;;13.57;6.77;;;;;;;9.37;51.51;102067.13;5058631;28;20177;-67
2021/04/03 05:57:44;;;;;;;11.30;6.07;;;;;;;10.34;47.38;102061.69;5058824;28;20478;-67
2021/04/03 06:00:10;;;;;;;8.70;6.20;;;;;;;11.68;44.70;102056.91;5058668;28;20178;-67
2021/04/03 06:02:38;;;;;;;12.47;6.60;;;;;;;12.06;43.83;102066.59;5057411;28;20189;-67
2021/04/03 06:05:05;;;;;;;12.10;6.10;;;;;;;12.72;41.43;102062.91;5058293;28;20169;-67
2021/04/03 06:07:31;;;;;;;12.43;6.30;;;;;;;12.13;43.14;102073.75;5058418;28;20486;-68
2021/04/03 06:09:57;;;;;;;8.43;5.70;;;;;;;12.30;41.67;102074.16;5056862;28;20432;-67
2021/04/03 06:12:42;;;;;;;13.50;7.00;;;;;;;13.51;38.77;102071.53;5058404;28;20187;-67
2021/04/03 06:15:12;;;;;;;10.00;6.20;;;;;;;13.05;40.22;102077.56;5058409;28;20468;-68
2021/04/03 06:17:37;;;;;;;8.60;5.60;;;;;;;13.69;38.84;102078.84;5058689;28;20439;-68
2021/04/03 06:20:03;;;;;;;9.40;5.80;;;;;;;14.17;38.00;102082.25;5058333;28;20454;-68
2021/04/03 06:22:46;;;;;;;8.00;5.80;;;;;;;14.63;36.86;102088.28;5057469;28;20235;-68
2021/04/03 06:25:12;;;;;;;10.90;5.90;;;;;;;14.08;37.29;102090.88;5057956;28;20483;-68
2021/04/03 06:27:37;;;;;;;9.80;5.67;;;;;;;15.19;35.57;102092.50;5058036;28;20485;-67
2021/04/03 06:30:14;;;;;;;7.50;5.60;;;;;;;14.44;36.57;102093.19;5058221;28;20440;-68
2021/04/03 06:32:39;;;;;;;10.53;5.57;;;;;;;14.66;36.57;102104.06;5057970;28;20435;-69
2021/04/03 06:35:05;;;;;;;9.60;5.27;;;;;;;15.10;35.37;102101.16;5058033;28;20398;-68
2021/04/03 06:37:33;;;;;;;8.63;5.73;;;;;;;14.89;35.67;102096.50;5057826;28;20212;-68
2021/04/03 06:40:06;;;;;;;8.73;5.50;;;;;;;15.31;35.13;102095.28;5058191;28;20531;-68
2021/04/03 06:42:57;;;;;;;8.30;5.27;;;;;;;15.41;35.06;102098.91;5057550;28;20497;-68
2021/04/03 06:45:29;;;;;;;6.80;5.50;;;;;;;15.77;33.26;102104.53;5058088;28;20443;-69
2021/04/03 06:48:07;;;;;;;5.53;4.90;;;;;;;16.33;32.73;102109.47;5057720;28;20467;-68
2021/04/03 06:50:39;;;;;;;7.30;5.43;;;;;;;16.96;31.73;102102.84;5057815;28;20493;-68
2021/04/03 06:53:06;;;;;;;7.80;5.43;;;;;;;15.06;35.02;102108.97;5057730;28;20424;-67
2021/04/03 06:55:32;;;;;;;6.57;5.07;;;;;;;16.13;32.69;102109.28;5057883;28;20474;-68
2021/04/03 06:58:00;;;;;;;10.80;5.60;;;;;;;17.33;31.27;102108.25;5057573;28;20395;-69
2021/04/03 07:00:26;;;;;;;6.10;5.27;;;;;;;16.86;31.79;102116.81;5057651;28;20219;-68
2021/04/03 07:02:58;;;;;;;7.80;5.40;;;;;;;16.77;31.32;102118.50;5057495;28;21629;-68
2021/04/03 07:05:25;;;;;;;9.07;5.43;;;;;;;17.90;30.10;102115.44;5056637;28;20833;-70
2021/04/03 07:07:50;;;;;;;7.57;5.00;;;;;;;17.68;29.97;102128.59;5056221;28;20703;-71
2021/04/03 07:10:17;;;;;;;5.77;4.67;;;;;;;16.75;32.02;102128.19;5081738;28;20433;-72
2021/04/03 07:12:43;;;;;;;6.70;4.70;;;;;;;17.33;30.90;102121.44;5057226;28;20190;-72
2021/04/03 07:15:09;;;;;;;5.83;4.73;;;;;;;17.24;31.03;102124.03;5057302;28;20413;-71
2021/04/03 07:17:43;;;;;;;6.20;5.60;;;;;;;17.05;30.97;102126.63;5057578;28;20170;-70
2021/04/03 07:20:14;;;;;;;5.20;4.43;;;;;;;19.60;27.01;102117.75;5058986;28;20489;-70
2021/04/03 07:22:42;;;;;;;6.00;4.70;;;;;;;18.66;28.99;102124.25;5060437;28;20828;-72
2021/04/03 07:25:08;;;;;;;6.30;5.53;;;;;;;17.65;29.10;102131.22;5060224;28;20837;-71
2021/04/03 07:27:37;;;;;;;7.17;5.27;;;;;;;17.16;30.94;102131.94;5060934;28;20463;-70
2021/04/03 07:30:03;;;;;;;8.63;4.97;;;;;;;16.56;31.25;102131.53;5061508;28;20402;-71
2021/04/03 07:32:32;;;;;;;6.80;5.03;;;;;;;18.28;28.75;102125.16;5060104;28;20428;-71
2021/04/03 07:34:57;;;;;;;6.50;4.93;;;;;;;18.52;28.19;102121.63;5061393;28;20578;-71
2021/04/03 07:37:31;;;;;;;7.27;4.70;;;;;;;18.93;26.71;102117.16;5067631;28;20413;-71
2021/04/03 07:39:57;;;;;;;4.90;4.43;;;;;;;17.18;29.30;102130.16;5061300;28;20178;-69
2021/04/03 07:42:36;;;;;;;6.27;4.30;;;;;;;18.30;27.67;102128.69;5060480;28;20847;-70
2021/04/03 07:45:23;;;;;;;5.80;4.43;;;;;;;18.05;28.36;102130.44;5061473;28;20569;-70
2021/04/03 07:47:49;;;;;;;5.73;4.70;;;;;;;18.00;27.89;102139.22;5060534;28;20497;-69
2021/04/03 07:50:44;;;;;;;4.87;4.40;;;;;;;19.26;25.77;102133.78;5061034;28;20424;-68
2021/04/03 07:53:10;;;;;;;5.87;4.40;;;;;;;18.41;26.92;102137.47;5060631;28;20173;-68
2021/04/03 07:55:37;;;;;;;6.50;4.50;;;;;;;18.07;26.57;102148.03;5060799;28;20422;-68
2021/04/03 07:58:21;;;;;;;4.87;4.10;;;;;;;17.79;26.71;102150.63;5061006;28;20165;-67
2021/04/03 08:00:46;;;;;;;5.00;4.00;;;;;;;18.38;26.20;102149.81;5060850;28;20450;-70
2021/04/03 08:03:12;;;;;;;5.50;4.73;;;;;;;17.64;27.73;102151.47;5060025;28;20507;-70
2021/04/03 08:05:38;;;;;;;5.80;4.23;;;;;;;18.29;26.63;102150.69;5061133;28;20181;-69
2021/04/03 08:08:05;;;;;;;5.30;4.00;;;;;;;19.48;24.84;102148.69;5076246;28;20213;-71
2021/04/03 08:10:30;;;;;;;5.80;4.30;;;;;;;18.65;25.60;102146.25;5060806;28;20408;-68
2021/04/03 08:12:56;;;;;;;6.13;4.80;;;;;;;18.72;24.48;102144.50;5060766;28;20416;-68
2021/04/03 08:15:22;;;;;;;5.37;4.33;;;;;;;19.13;24.42;102144.44;5060309;28;20282;-68
2021/04/03 08:17:51;;;;;;;4.80;3.80;;;;;;;19.06;24.59;102145.31;5060697;28;20436;-68
2021/04/03 08:20:17;;;;;;;4.20;3.80;;;;;;;19.91;21.85;102138.75;5060029;28;20165;-69
2021/04/03 08:23:03;;;;;;;5.30;4.33;;;;;;;19.70;22.46;102151.22;5059987;28;20833;-69
2021/04/03 08:25:28;;;;;;;4.10;3.67;;;;;;;19.79;22.20;102143.19;5059758;28;20221;-69
2021/04/03 08:27:54;;;;;;;4.93;3.60;;;;;;;19.85;22.69;102143.19;5059953;28;20466;-68
2021/04/03 08:30:31;;;;;;;4.77;3.47;;;;;;;20.76;20.38;102143.34;5060109;28;20246;-68
2021/04/03 08:33:08;;;;;;;3.97;3.40;;;;;;;20.28;20.23;102152.59;5059291;28;20170;-69
2021/04/03 08:35:35;;;;;;;3.43;3.13;;;;;;;19.50;20.54;102148.69;5059499;28;20424;-68
2021/04/03 08:38:10;;;;;;;4.03;3.20;;;;;;;18.76;20.58;102157.69;5059406;28;20438;-67
2021/04/03 08:40:36;;;;;;;3.63;3.30;;;;;;;19.37;19.89;102161.06;5059816;28;20412;-67
2021/04/03 08:43:01;;;;;;;4.73;3.77;;;;;;;18.52;20.83;102164.78;5059856;28;20420;-67
2021/04/03 08:45:33;;;;;;;3.80;3.50;;;;;;;20.51;18.47;102156.78;5060295;28;20180;-69
2021/04/03 08:47:58;;;;;;;3.93;3.23;;;;;;;20.34;18.16;102160.47;5059773;28;20233;-67
2021/04/03 08:50:24;;;;;;;4.63;4.23;;;;;;;21.50;16.71;102161.91;5059006;28;20447;-67
2021/04/03 08:52:57;;;;;;;3.83;3.43;;;;;;;21.55;16.04;102156.56;5059232;28;20248;-67
2021/04/03 08:55:26;;;;;;;4.20;3.00;;;;;;;20.61;16.57;102165.56;5059804;28;20443;-66
2021/04/03 08:57:51;;;;;;;3.53;2.90;;;;;;;20.74;16.69;102168.97;5040247;28;20425;-68
2021/04/03 09:00:19;;;;;;;3.40;2.70;;;;;;;20.73;16.74;102164.56;5039936;28;20409;-67
2021/04/03 09:02:45;;;;;;;3.23;2.90;;;;;;;21.06;16.76;102168.63;5039718;28;20170;-67
2021/04/03 09:05:11;;;;;;;4.37;2.90;;;;;;;20.57;17.17;102169.13;5040472;28;20416;-69
2021/04/03 09:07:37;;;;;;;3.83;3.00;;;;;;;20.91;17.51;102166.19;5039351;28;20217;-66
2021/04/03 09:10:07;;;;;;;5.30;2.87;;;;;;;19.35;17.93;102174.28;5046094;28;20420;-67
2021/04/03 09:12:32;;;;;;;5.43;3.73;;;;;;;19.92;18.46;102167.84;5059477;28;20460;-68
2021/04/03 09:14:57;;;;;;;4.03;2.67;;;;;;;18.80;19.02;102171.78;5059173;28;20514;-68
2021/04/03 09:17:24;;;;;;;4.07;3.10;;;;;;;19.33;18.12;102176.03;5058500;28;20269;-67
2021/04/03 09:19:51;;;;;;;3.80;3.00;;;;;;;19.32;18.42;102169.03;5059591;28;20170;-68
2021/04/03 09:22:18;;;;;;;4.03;3.23;;;;;;;17.96;19.38;102170.91;5058834;28;20442;-68
2021/04/03 09:24:57;;;;;;;4.70;3.40;;;;;;;18.78;20.62;102181.44;5058423;28;20451;-67
2021/04/03 09:27:23;;;;;;;4.00;2.80;;;;;;;18.14;20.18;102175.31;5058886;28;20448;-66
2021/04/03 09:30:07;;;;;;;5.73;3.27;;;;;;;19.76;18.58;102174.09;5059260;28;20416;-68
2021/04/03 09:32:40;;;;;;;4.43;3.50;;;;;;;18.74;18.69;102164.75;5057734;28;20178;-68
2021/04/03 09:35:06;;;;;;;4.73;3.30;;;;;;;20.07;17.80;102169.53;5061726;28;20412;-68
2021/04/03 09:37:31;;;;;;;5.33;3.93;;;;;;;19.91;17.69;102162.59;5063352;28;20539;-68
2021/04/03 09:39:57;;;;;;;4.83;3.10;;;;;;;20.28;17.28;102151.69;5058420;28;20519;-68
2021/04/03 09:42:27;;;;;;;4.07;3.10;;;;;;;19.93;18.66;102158.13;5058612;28;20166;-68
2021/04/03 09:44:54;;;;;;;3.47;3.17;;;;;;;19.03;19.87;102161.19;5037992;28;20181;-68
2021/04/03 09:47:20;;;;;;;3.27;2.93;;;;;;;19.81;18.31;102160.00;5054284;28;20463;-67
2021/04/03 09:49:46;;;;;;;3.93;3.20;;;;;;;19.15;19.57;102153.22;5058618;28;20428;-69
2021/04/03 09:52:13;;;;;;;3.80;3.07;;;;;;;18.15;20.67;102164.75;5058281;28;20185;-68
2021/04/03 09:54:39;;;;;;;4.37;3.20;;;;;;;18.47;19.71;102163.03;5058331;28;20170;-69
2021/04/03 09:57:08;;;;;;;5.00;4.00;;;;;;;17.81;21.02;102172.59;5058861;28;20885;-69
2021/04/03 09:59:33;;;;;;;4.63;4.23;;;;;;;17.90;20.81;102168.19;5058140;28;20173;-70
2021/04/03 10:02:00;;;;;;;4.07;3.67;;;;;;;18.72;20.28;102170.91;5058264;28;20414;-70
2021/04/03 10:04:25;;;;;;;3.63;3.33;;;;;;;19.83;18.51;102162.63;5058556;28;20589;-68
2021/04/03 10:06:51;;;;;;;5.93;4.13;;;;;;;19.12;19.44;102160.25;5058213;28;20455;-69
2021/04/03 10:09:17;;;;;;;4.17;3.77;;;;;;;18.81;19.35;102160.34;5057283;28;20230;-67
2021/04/03 10:11:42;;;;;;;6.20;4.20;;;;;;;19.11;20.21;102164.69;5058255;28;20538;-67
2021/04/03 10:14:08;;;;;;;6.47;4.50;;;;;;;19.86;18.71;102165.25;5057963;28;20408;-67
2021/04/03 10:16:33;;;;;;;8.43;4.67;;;;;;;20.52;18.39;102159.44;5058116;28;20569;-68
2021/04/03 10:18:59;;;;;;;4.87;4.03;;;;;;;19.33;19.73;102170.75;5058668;28;20169;-67
2021/04/03 10:21:24;;;;;;;7.30;3.87;;;;;;;20.62;18.46;102162.88;5057638;28;20187;-69
2021/04/03 10:23:50;;;;;;;4.60;3.87;;;;;;;19.84;18.65;102167.91;5058072;28;20445;-68
2021/04/03 10:26:16;;;;;;;5.50;4.50;;;;;;;19.04;20.09;102173.53;5057970;28;20228;-67
2021/04/03 10:28:41;;;;;;;4.83;4.37;;;;;;;18.73;20.56;102173.53;5057800;28;20198;-67
2021/04/03 10:31:06;;;;;;;3.73;3.43;;;;;;;18.79;20.10;102170.88;5058038;28;20307;-67
2021/04/03 10:33:32;;;;;;;4.37;3.70;;;;;;;18.11;21.23;102177.97;5057780;28;20185;-69
2021/04/03 10:35:57;;;;;;;3.80;3.20;;;;;;;18.69;20.54;102183.22;5057510;28;20170;-69
2021/04/03 10:38:22;;;;;;;3.40;3.10;;;;;;;17.68;21.02;102181.34;5058444;28;20165;-69
2021/04/03 10:40:48;;;;;;;6.10;3.70;;;;;;;18.38;20.80;102186.78;5057743;28;20595;-68
2021/04/03 10:43:13;;;;;;;4.17;3.77;;;;;;;18.65;20.94;102180.59;5057412;28;20166;-68
2021/04/03 10:45:39;;;;;;;3.73;3.37;;;;;;;19.40;19.97;102182.19;5058028;28;20165;-69
2021/04/03 10:48:04;;;;;;;4.03;3.43;;;;;;;19.18;20.08;102171.69;5057608;28;20208;-68
2021/04/03 10:50:30;;;;;;;4.57;4.17;;;;;;;18.23;21.40;102180.59;5057103;28;20181;-68
2021/04/03 10:52:55;;;;;;;5.10;4.60;;;;;;;18.18;21.44;102185.00;5057917;28;20166;-68
2021/04/03 10:55:20;;;;;;;7.03;4.50;;;;;;;18.09;21.50;102185.88;5059207;28;20176;-67
2021/04/03 10:57:46;;;;;;;4.30;3.90;;;;;;;17.97;21.46;102191.13;5061933;28;20161;-66
2021/04/03 11:00:11;;;;;;;6.00;3.90;;;;;;;19.36;21.43;102169.88;5061920;28;20535;-67
2021/04/03 11:02:37;;;;;;;4.33;3.80;;;;;;;19.31;19.99;102172.53;5061509;28;20427;-72
2021/04/03 11:05:02;;;;;;;5.87;3.60;;;;;;;18.77;20.38;102175.31;5061612;28;20169;-69
2021/04/03 11:07:28;;;;;;;5.17;4.07;;;;;;;19.39;20.43;102169.88;5061869;28;20185;-67
2021/04/03 11:09:53;;;;;;;6.30;4.90;;;;;;;18.80;20.94;102162.06;5061508;28;20565;-67
2021/04/03 11:12:19;;;;;;;4.73;4.33;;;;;;;19.33;20.78;102161.97;5061459;28;20200;-68
2021/04/03 11:14:44;;;;;;;5.97;5.00;;;;;;;18.71;21.27;102153.28;5061867;28;20249;-69
2021/04/03 11:17:10;;;;;;;4.50;4.10;;;;;;;16.46;23.53;102176.22;5061133;28;20231;-69
2021/04/03 11:19:36;;;;;;;4.90;4.40;;;;;;;16.41;23.96;102171.78;5061616;28;20169;-68
2021/04/03 11:22:02;;;;;;;5.43;4.10;;;;;;;16.71;23.72;102165.91;5061610;28;20395;-68
2021/04/03 11:24:27;;;;;;;7.53;6.27;;;;;;;18.51;22.36;102156.84;5061418;28;20181;-67
2021/04/03 11:26:52;;;;;;;4.73;4.33;;;;;;;17.56;22.57;102162.84;5061183;28;20240;-71